createdAt,value
2022-09-06T00:01:29.619Z,87.00
2022-09-06T00:05:12.774Z,87.10
2022-09-06T00:08:54.904Z,87.10
2022-09-06T00:12:38.457Z,87.00
2022-09-06T00:16:30.101Z,86.90
2022-09-06T00:20:12.580Z,86.80
2022-09-06T00:23:55.586Z,86.80
2022-09-06T00:27:37.709Z,86.80
2022-09-06T00:31:23.523Z,86.90
2022-09-06T00:35:07.059Z,86.90
2022-09-06T00:38:49.616Z,86.90
2022-09-06T00:42:32.042Z,86.90
2022-09-06T00:46:25.616Z,86.90
2022-09-06T00:50:09.671Z,87.20
2022-09-06T00:53:52.488Z,87.00
2022-09-06T00:57:35.200Z,87.00
2022-09-06T01:01:17.380Z,87.10
2022-09-06T01:05:00.347Z,87.30
2022-09-06T01:08:52.187Z,87.60
2022-09-06T01:12:45.597Z,87.70
2022-09-06T01:16:40.397Z,87.60
2022-09-06T01:20:42.068Z,87.80
2022-09-06T01:24:33.405Z,87.60
2022-09-06T01:28:34.915Z,87.70
2022-09-06T01:32:32.527Z,88.10
2022-09-06T01:36:21.172Z,88.20
2022-09-06T01:40:04.144Z,87.80
2022-09-06T01:43:49.452Z,87.80
2022-09-06T01:47:58.694Z,87.60
2022-09-06T01:51:49.849Z,87.60
2022-09-06T01:56:07.756Z,87.30
2022-09-06T01:59:52.627Z,88.00
2022-09-06T02:04:00.495Z,87.50
2022-09-06T02:07:44.765Z,87.60
2022-09-06T02:11:30.697Z,87.50
2022-09-06T02:15:35.096Z,87.80
2022-09-06T02:19:25.524Z,87.90
2022-09-06T02:23:08.724Z,87.80
2022-09-06T02:26:51.090Z,88.60
2022-09-06T02:30:38.495Z,87.90
2022-09-06T02:34:21.331Z,87.90
2022-09-06T02:38:03.607Z,88.10
2022-09-06T02:41:48.343Z,88.10
2022-09-06T02:45:30.562Z,88.00
2022-09-06T02:49:12.859Z,88.10
2022-09-06T02:53:09.710Z,88.20
2022-09-06T02:56:52.619Z,88.50
2022-09-06T03:00:35.079Z,88.60
2022-09-06T03:04:17.272Z,88.70
2022-09-06T03:07:59.867Z,88.60
2022-09-06T03:11:45.042Z,88.60
2022-09-06T03:15:27.358Z,88.60
2022-09-06T03:19:09.770Z,88.60
2022-09-06T03:22:52.204Z,88.60
2022-09-06T03:26:34.405Z,88.60
2022-09-06T03:30:16.606Z,88.60
2022-09-06T03:33:58.828Z,88.60
2022-09-06T03:37:41.134Z,88.50
2022-09-06T03:55:51.089Z,88.50
2022-09-06T03:59:33.584Z,88.10
2022-09-06T04:03:15.861Z,88.20
2022-09-06T04:06:58.229Z,88.40
2022-09-06T04:10:40.668Z,88.50
2022-09-06T04:14:22.855Z,88.60
2022-09-06T04:18:09.148Z,88.70
2022-09-06T04:21:51.570Z,88.70
2022-09-06T04:25:33.989Z,88.60
2022-09-06T04:29:16.275Z,88.60
2022-09-06T04:32:58.669Z,88.50
2022-09-06T04:36:41.688Z,88.30
2022-09-06T04:40:26.318Z,88.20
2022-09-06T04:44:08.595Z,88.10
2022-09-06T04:47:51.799Z,88.00
2022-09-06T04:51:34.003Z,88.20
2022-09-06T04:55:16.286Z,88.40
2022-09-06T04:58:58.379Z,88.60
2022-09-06T05:02:40.725Z,88.80
2022-09-06T05:06:24.815Z,88.80
2022-09-06T05:10:07.180Z,88.70
2022-09-06T05:13:50.624Z,88.70
2022-09-06T05:17:33.071Z,88.70
2022-09-06T05:21:16.620Z,88.80
2022-09-06T05:24:58.795Z,88.80
2022-09-06T05:28:40.988Z,88.80
2022-09-06T05:32:23.429Z,88.70
2022-09-06T05:36:06.728Z,88.70
2022-09-06T05:39:49.589Z,88.70
2022-09-06T05:43:31.886Z,88.80
2022-09-06T05:47:14.135Z,88.90
2022-09-06T05:51:13.146Z,89.10
2022-09-06T05:54:55.253Z,89.20
2022-09-06T05:58:38.533Z,89.00
2022-09-06T06:02:22.271Z,89.00
2022-09-06T06:06:04.505Z,89.10
2022-09-06T06:09:49.381Z,89.40
2022-09-06T06:13:35.389Z,89.60
2022-09-06T06:17:17.535Z,89.50
2022-09-06T06:21:21.388Z,89.50
2022-09-06T06:25:03.789Z,89.60
2022-09-06T06:28:46.322Z,89.80
2022-09-06T06:32:28.549Z,90.50
2022-09-06T06:36:13.916Z,90.80
2022-09-06T06:39:57.649Z,90.40
2022-09-06T06:43:40.902Z,89.80
2022-09-06T06:47:23.093Z,89.60
2022-09-06T06:51:05.201Z,89.60
2022-09-06T06:54:47.313Z,89.80
2022-09-06T06:58:31.276Z,89.90
2022-09-06T07:02:15.919Z,89.80
2022-09-06T07:06:13.652Z,89.60
2022-09-06T07:14:04.035Z,89.50
2022-09-06T07:17:46.563Z,89.70
2022-09-06T07:25:21.508Z,89.60
2022-09-06T07:29:06.035Z,89.30
2022-09-06T07:32:48.350Z,89.20
2022-09-06T07:36:31.132Z,89.40
2022-09-06T07:40:13.501Z,89.40
2022-09-06T07:43:55.635Z,89.40
2022-09-06T07:51:40.170Z,89.10
2022-09-06T07:55:22.365Z,89.30
2022-09-06T07:59:04.498Z,89.50
2022-09-06T08:02:46.678Z,89.80
2022-09-06T08:06:31.499Z,90.40
2022-09-06T08:10:17.071Z,91.60
2022-09-06T08:14:03.336Z,92.00
2022-09-06T08:17:51.275Z,89.30
2022-09-06T08:21:34.258Z,89.10
2022-09-06T08:25:16.519Z,88.30
2022-09-06T08:29:01.027Z,87.90
2022-09-06T08:32:43.186Z,87.70
2022-09-06T08:36:29.674Z,87.80
2022-09-06T08:40:13.353Z,88.10
2022-09-06T08:48:04.716Z,87.70
2022-09-06T08:51:49.725Z,87.60
2022-09-06T08:55:48.117Z,87.90
2022-09-06T08:59:37.864Z,87.70
2022-09-06T09:03:26.557Z,87.80
2022-09-06T09:07:39.078Z,87.90
2022-09-06T09:11:22.757Z,87.60
2022-09-06T09:15:09.200Z,87.90
2022-09-06T09:18:57.677Z,88.10
2022-09-06T09:22:40.901Z,88.00
2022-09-06T09:26:26.974Z,88.00
2022-09-06T09:34:27.896Z,86.90
2022-09-06T09:38:13.320Z,86.70
2022-09-06T09:41:55.413Z,86.80
2022-09-06T09:45:37.442Z,86.90
2022-09-06T09:49:22.458Z,87.20
2022-09-06T09:53:14.155Z,87.40
2022-09-06T09:56:57.913Z,87.00
2022-09-06T10:00:43.338Z,87.10
2022-09-06T10:04:45.691Z,87.50
2022-09-06T10:08:33.043Z,87.80
2022-09-06T10:12:29.301Z,88.60
2022-09-06T10:16:11.667Z,88.00
2022-09-06T10:19:54.174Z,88.60
2022-09-06T10:28:15.715Z,86.20
2022-09-06T10:32:39.912Z,89.20
2022-09-06T10:36:40.053Z,82.80
2022-09-06T10:41:03.817Z,86.50
2022-09-06T10:45:03.804Z,83.10
2022-09-06T10:48:46.573Z,80.30
2022-09-06T10:52:36.821Z,81.20
2022-09-06T10:56:38.328Z,84.70
2022-09-06T11:00:21.203Z,78.10
2022-09-06T11:04:12.667Z,79.20
2022-09-06T11:12:25.385Z,74.20
2022-09-06T11:16:17.496Z,75.80
2022-09-06T11:20:11.975Z,72.60
2022-09-06T11:23:59.334Z,70.20
2022-09-06T11:27:45.332Z,73.50
2022-09-06T11:35:37.762Z,68.10
2022-09-06T11:43:54.123Z,58.70
2022-09-06T11:47:38.503Z,56.90
2022-09-06T11:51:37.357Z,60.10
2022-09-06T11:55:22.855Z,55.50
2022-09-06T11:59:13.284Z,61.30
2022-09-06T12:07:09.339Z,60.70
2022-09-06T12:10:59.509Z,50.00
2022-09-06T12:14:43.595Z,52.30
2022-09-06T12:18:46.993Z,55.80
2022-09-06T12:22:40.469Z,50.70
2022-09-06T12:26:53.221Z,53.40
2022-09-06T12:30:39.319Z,47.30
2022-09-06T12:34:33.751Z,53.40
2022-09-06T12:38:17.393Z,52.10
2022-09-06T12:42:11.029Z,53.90
2022-09-06T12:45:53.749Z,52.50
2022-09-06T12:49:35.992Z,55.30
2022-09-06T12:53:26.775Z,55.20
2022-09-06T12:57:19.933Z,50.90
2022-09-06T13:01:14.522Z,52.10
2022-09-06T13:05:05.837Z,52.20
2022-09-06T13:08:52.323Z,55.40
2022-09-06T13:12:38.230Z,56.60
2022-09-06T13:16:26.314Z,56.30
2022-09-06T13:20:22.854Z,56.00
2022-09-06T13:24:45.860Z,56.00
2022-09-06T13:28:34.086Z,56.90
2022-09-06T13:32:16.102Z,57.10
2022-09-06T13:36:20.979Z,57.50
2022-09-06T13:40:23.113Z,56.30
2022-09-06T13:44:22.113Z,58.10
2022-09-06T13:48:26.293Z,55.70
2022-09-06T13:52:06.429Z,57.40
2022-09-06T13:55:48.582Z,56.80
2022-09-06T13:59:31.760Z,58.30
2022-09-06T14:03:24.948Z,58.60
2022-09-06T14:07:07.469Z,58.30
2022-09-06T14:10:50.592Z,59.40
2022-09-06T14:14:33.201Z,59.60
2022-09-06T14:18:16.448Z,58.50
2022-09-06T14:21:58.622Z,58.20
2022-09-06T14:25:40.712Z,58.20
2022-09-06T14:29:22.833Z,58.10
2022-09-06T14:33:05.288Z,57.90
2022-09-06T14:36:47.443Z,57.70
2022-09-06T14:40:29.594Z,56.80
2022-09-06T14:44:11.802Z,57.90
2022-09-06T14:48:12.228Z,57.40
2022-09-06T14:51:54.227Z,56.90
2022-09-06T14:55:38.379Z,55.20
2022-09-06T14:59:20.860Z,58.30
2022-09-06T15:03:03.081Z,58.40
2022-09-06T15:06:47.391Z,58.50
2022-09-06T15:10:30.130Z,57.90
2022-09-06T15:14:18.593Z,57.90
2022-09-06T15:18:01.828Z,59.20
2022-09-06T15:21:43.955Z,60.00
2022-09-06T15:25:26.013Z,61.20
2022-09-06T15:29:14.919Z,63.50
2022-09-06T15:32:56.898Z,65.20
2022-09-06T15:36:39.079Z,66.20
2022-09-06T15:40:21.901Z,66.50
2022-09-06T15:44:12.544Z,66.00
2022-09-06T15:47:56.014Z,68.00
2022-09-06T15:51:39.860Z,66.50
2022-09-06T15:55:41.708Z,67.00
2022-09-06T15:59:24.070Z,67.30
2022-09-06T16:03:06.567Z,66.90
2022-09-06T16:06:49.152Z,67.50
2022-09-06T16:10:31.316Z,67.40
2022-09-06T16:14:16.038Z,67.40
2022-09-06T16:17:58.442Z,67.60
2022-09-06T16:21:42.413Z,67.20
2022-09-06T16:25:25.239Z,67.20
2022-09-06T16:29:09.467Z,66.90
2022-09-06T16:32:51.587Z,67.10
2022-09-06T16:36:33.709Z,67.00
2022-09-06T16:40:15.949Z,67.30
2022-09-06T16:43:58.967Z,67.50
2022-09-06T16:47:41.042Z,67.60
2022-09-06T16:51:25.209Z,67.80
2022-09-06T16:55:07.743Z,68.00
2022-09-06T16:58:57.406Z,68.00
2022-09-06T17:02:45.036Z,68.30
2022-09-06T17:06:29.589Z,68.40
2022-09-06T17:10:12.122Z,68.30
2022-09-06T17:13:55.663Z,68.60
2022-09-06T17:17:37.719Z,69.00
2022-09-06T17:21:24.524Z,67.80
2022-09-06T17:25:07.053Z,70.20
2022-09-06T17:28:50.435Z,71.10
2022-09-06T17:32:32.435Z,72.60
2022-09-06T17:36:21.427Z,73.50
2022-09-06T17:44:59.915Z,78.40
2022-09-06T17:48:43.204Z,76.10
2022-09-06T17:52:25.282Z,76.00
2022-09-06T17:56:09.533Z,75.90
2022-09-06T17:59:51.586Z,76.10
2022-09-06T18:03:35.082Z,76.30
2022-09-06T18:07:17.693Z,76.40
2022-09-06T18:10:59.683Z,76.80
2022-09-06T18:14:41.695Z,76.80
2022-09-06T18:18:23.753Z,77.10
2022-09-06T18:22:06.019Z,77.70
2022-09-06T18:26:02.557Z,77.50
2022-09-06T18:29:44.664Z,80.20
2022-09-06T18:33:27.952Z,78.50
2022-09-06T18:37:10.023Z,78.80
2022-09-06T18:40:53.685Z,79.00
2022-09-06T18:44:35.798Z,79.20
2022-09-06T18:48:18.810Z,79.20
2022-09-06T18:52:05.468Z,78.80
2022-09-06T18:55:51.808Z,79.50
2022-09-06T18:59:33.873Z,80.20
2022-09-06T19:03:15.856Z,80.00
2022-09-06T19:06:57.923Z,80.20
2022-09-06T19:10:39.935Z,79.90
2022-09-06T19:14:22.188Z,80.10
2022-09-06T19:18:04.278Z,79.70
2022-09-06T19:21:46.362Z,79.90
2022-09-06T19:25:28.357Z,80.00
2022-09-06T19:29:17.683Z,80.10
2022-09-06T19:32:59.708Z,80.70
2022-09-06T19:36:42.110Z,80.50
2022-09-06T19:40:24.069Z,80.70
2022-09-06T19:44:08.796Z,80.80
2022-09-06T19:47:50.945Z,80.80
2022-09-06T19:51:33.281Z,81.20
2022-09-06T19:55:15.423Z,81.10
2022-09-06T19:59:09.250Z,81.30
2022-09-06T20:02:51.285Z,82.50
2022-09-06T20:06:34.187Z,81.50
2022-09-06T20:10:18.024Z,81.30
2022-09-06T20:14:01.031Z,81.30
2022-09-06T20:17:43.022Z,81.40
2022-09-06T20:21:28.526Z,81.40
2022-09-06T20:25:12.075Z,81.70
2022-09-06T20:28:56.113Z,81.60
2022-09-06T20:32:38.139Z,81.80
2022-09-06T20:36:20.807Z,82.00
2022-09-06T20:40:03.169Z,82.00
2022-09-06T20:43:46.696Z,81.90
2022-09-06T20:47:29.596Z,82.00
2022-09-06T20:51:15.974Z,81.90
2022-09-06T20:54:58.269Z,82.00
2022-09-06T20:58:47.154Z,82.00
2022-09-06T21:02:32.645Z,82.20
2022-09-06T21:06:15.580Z,82.20
2022-09-06T21:10:01.270Z,82.20
2022-09-06T21:13:44.292Z,82.30
2022-09-06T21:17:26.243Z,82.40
2022-09-06T21:21:09.100Z,82.60
2022-09-06T21:24:51.083Z,82.90
2022-09-06T21:28:37.437Z,82.90
2022-09-06T21:32:19.473Z,83.00
2022-09-06T21:36:06.950Z,82.80
2022-09-06T21:39:49.323Z,83.00
2022-09-06T21:43:31.915Z,83.10
2022-09-06T21:47:14.655Z,83.10
2022-09-06T21:50:57.459Z,83.20
2022-09-06T21:54:39.432Z,83.20
2022-09-06T21:58:21.434Z,83.00
2022-09-06T22:02:03.505Z,82.90
2022-09-06T22:05:46.306Z,82.90
2022-09-06T22:09:28.336Z,82.90
2022-09-06T22:13:10.513Z,82.90
2022-09-06T22:16:53.661Z,82.80
2022-09-06T22:20:36.597Z,82.90
2022-09-06T22:24:18.618Z,82.90
2022-09-06T22:28:01.445Z,83.10
2022-09-06T22:31:43.873Z,83.30
2022-09-06T22:35:26.031Z,83.30
2022-09-06T22:39:09.706Z,83.10
2022-09-06T22:42:51.757Z,83.00
2022-09-06T22:46:34.233Z,82.80
2022-09-06T22:50:16.302Z,83.00
2022-09-06T22:53:58.519Z,83.00
2022-09-06T22:57:40.621Z,82.90
2022-09-06T23:01:23.013Z,82.90
2022-09-06T23:05:05.525Z,82.90
2022-09-06T23:08:47.732Z,82.90
2022-09-06T23:12:29.756Z,83.10
2022-09-06T23:16:14.571Z,83.20
2022-09-06T23:19:56.620Z,83.10
2022-09-06T23:23:39.226Z,83.10
2022-09-06T23:27:21.229Z,83.00
2022-09-06T23:31:08.478Z,83.10
2022-09-06T23:34:50.510Z,83.30
2022-09-06T23:38:34.126Z,83.10
2022-09-06T23:42:16.168Z,83.20
2022-09-06T23:45:58.618Z,83.20
2022-09-06T23:49:40.683Z,83.20
2022-09-06T23:53:22.953Z,83.50
2022-09-06T23:57:05.149Z,83.60
